»·PEaware :: DAL4250 KSLC-KJAC

DAL4250 :: KSLC-KJAC

FLIGHT INFORMATION

Flight Status: Arrived
Operator:
Delta Air Lines
More flights by this operator :: More flights under this callsign
Pilot: Walter H. (552)
Aircraft: MCDONNELL-DOUGLAS MD-82
(MD82)
More flights by this aircraft type
Origin: KSLC Salt Lake City Intl
United States
Destination: KJAC Jackson Hole
United States
More flights between these airports :: More routes between these airports
Route: +RUGGD1 HOLTR DNW
File this flight plan on PilotEdge
Remarks: RMK / POWERED BY SIMBRIEF
Altitude:
(Current/Filed)
29,000ft
Speed:
(Current/Filed)
452kts
Departed: 25-Jan-19 04:46 PM
Arrived: 25-Jan-19 05:32 PM
Distance/Time
Traveled:
178nm/0:46
Distance/Time
To Go:
Arrived

Flight Plot

Page will automatically refresh every two minutes.

Flight plan parsing failed; only flown route is shown


Map Options




Map Legend


Flown Route
Filed Route
Departure Airport
Arrival Airport
Navaid (VOR, NDB)
Fix

Horizontal Profiles

Position Reports

Time Latitude Longitude Heading Altitude Ground
Speed
25-Jan-19 15:38 40.788066 -111.980790 282 4236ft 0kts
25-Jan-19 15:39 40.788066 -111.980790 282 4236ft 0kts
25-Jan-19 15:40 40.788066 -111.980790 282 4236ft 0kts
25-Jan-19 15:41 40.788066 -111.980790 282 4236ft 0kts
25-Jan-19 15:42 40.788066 -111.980790 282 4236ft 0kts
25-Jan-19 15:43 40.788066 -111.980790 282 4236ft 0kts
25-Jan-19 15:44 40.788066 -111.980790 282 4236ft 0kts
25-Jan-19 15:45 40.788066 -111.980790 282 4236ft 0kts
25-Jan-19 15:54 40.787542 -111.982257 112 4236ft 0kts
25-Jan-19 15:55 40.787542 -111.982257 112 4236ft 0kts
25-Jan-19 15:56 40.787542 -111.982257 112 4236ft 0kts
25-Jan-19 15:57 40.787542 -111.982257 112 4236ft 0kts
25-Jan-19 15:58 40.787542 -111.982257 112 4236ft 0kts
25-Jan-19 15:59 40.787542 -111.982257 112 4236ft 0kts
25-Jan-19 16:00 40.787542 -111.982257 112 4236ft 0kts
25-Jan-19 16:01 40.787542 -111.982257 112 4236ft 0kts
25-Jan-19 16:02 40.787542 -111.982257 112 4236ft 0kts
25-Jan-19 16:03 40.787542 -111.982257 112 4236ft 0kts
25-Jan-19 16:04 40.787542 -111.982257 112 4236ft 0kts
25-Jan-19 16:05 40.787542 -111.982257 112 4236ft 0kts
25-Jan-19 16:06 40.787542 -111.982257 112 4236ft 0kts
25-Jan-19 16:07 40.787542 -111.982257 112 4236ft 0kts
25-Jan-19 16:08 40.787542 -111.982257 112 4236ft 0kts
25-Jan-19 16:09 40.787542 -111.982257 112 4236ft 0kts
25-Jan-19 16:10 40.787542 -111.982257 112 4236ft 0kts
25-Jan-19 16:11 40.787542 -111.982257 112 4236ft 0kts
25-Jan-19 16:12 40.787542 -111.982257 112 4236ft 0kts
25-Jan-19 16:13 40.787542 -111.982257 112 4236ft 0kts
25-Jan-19 16:14 40.787542 -111.982257 112 4236ft 0kts
25-Jan-19 16:15 40.787542 -111.982257 112 4236ft 0kts
25-Jan-19 16:16 40.787542 -111.982257 112 4236ft 0kts
25-Jan-19 16:17 40.787542 -111.982257 112 4236ft 0kts
25-Jan-19 16:18 40.787542 -111.982257 112 4236ft 0kts
25-Jan-19 16:19 40.787542 -111.982257 112 4236ft 0kts
25-Jan-19 16:20 40.787542 -111.982257 112 4236ft 0kts
25-Jan-19 16:21 40.787542 -111.982257 112 4236ft 0kts
25-Jan-19 16:22 40.787542 -111.982257 112 4236ft 0kts
25-Jan-19 16:23 40.787542 -111.982257 112 4236ft 0kts
25-Jan-19 16:24 40.787542 -111.982257 112 4236ft 0kts
25-Jan-19 16:25 40.787542 -111.982257 112 4236ft 0kts
25-Jan-19 16:26 40.787542 -111.982257 112 4236ft 0kts
25-Jan-19 16:27 40.787543 -111.982259 112 4236ft 0kts
25-Jan-19 16:28 40.787596 -111.982428 113 4236ft 0kts
25-Jan-19 16:29 40.787596 -111.982428 113 4236ft 0kts
25-Jan-19 16:30 40.787596 -111.982428 113 4236ft 0kts
25-Jan-19 16:31 40.787596 -111.982428 113 4236ft 0kts
25-Jan-19 16:32 40.788911 -111.982547 346 4236ft 18kts
25-Jan-19 16:33 40.790121 -111.982829 355 4236ft 0kts
25-Jan-19 16:34 40.790063 -111.978383 85 4236ft 13kts
25-Jan-19 16:35 40.785566 -111.976483 174 4236ft 25kts
25-Jan-19 16:36 40.783866 -111.976276 171 4236ft 0kts
25-Jan-19 16:37 40.778218 -111.975615 174 4236ft 26kts
25-Jan-19 16:38 40.774477 -111.974213 72 4236ft 0kts
25-Jan-19 16:39 40.774478 -111.974207 72 4236ft 0kts
25-Jan-19 16:40 40.774480 -111.974200 72 4236ft 0kts
25-Jan-19 16:41 40.774482 -111.974192 72 4236ft 0kts
25-Jan-19 16:42 40.774484 -111.974182 72 4236ft 0kts
25-Jan-19 16:43 40.774592 -111.973839 67 4236ft 11kts
25-Jan-19 16:44 40.775171 -111.973156 355 4236ft 10kts
25-Jan-19 16:45 40.811876 -111.977523 355 5770ft 183kts
25-Jan-19 16:46 40.862970 -111.985076 352 9193ft 194kts
25-Jan-19 16:47 40.929894 -111.994973 350 10583ft 284kts
25-Jan-19 16:48 41.014037 -112.009807 350 12235ft 316kts
25-Jan-19 16:49 41.088590 -111.955446 58 15445ft 347kts
25-Jan-19 16:50 41.121014 -111.831084 64 18516ft 364kts
25-Jan-19 16:51 41.183568 -111.742989 11 21578ft 330kts
25-Jan-19 16:52 41.274647 -111.723724 5 24183ft 332kts
25-Jan-19 16:53 41.366055 -111.706502 8 26603ft 329kts
25-Jan-19 16:54 41.455187 -111.679798 15 28554ft 328kts
25-Jan-19 16:55 41.543057 -111.644547 15 28974ft 326kts
25-Jan-19 16:56 41.630012 -111.610760 15 28982ft 325kts
25-Jan-19 16:57 41.716887 -111.577273 15 28981ft 324kts
25-Jan-19 16:58 41.803623 -111.544123 13 28976ft 323kts
25-Jan-19 17:00 41.892084 -111.523340 9 28972ft 324kts
25-Jan-19 17:01 41.981180 -111.504424 10 28969ft 324kts
25-Jan-19 17:02 42.069920 -111.485358 10 28964ft 321kts
25-Jan-19 17:03 42.158155 -111.465957 10 28606ft 317kts
25-Jan-19 17:04 42.245574 -111.446371 9 26983ft 320kts
25-Jan-19 17:05 42.332236 -111.418590 20 25526ft 325kts
25-Jan-19 17:06 42.412871 -111.359979 24 24166ft 331kts
25-Jan-19 17:07 42.493566 -111.299328 23 23069ft 331kts
25-Jan-19 17:08 42.575069 -111.240232 22 22076ft 331kts
25-Jan-19 17:09 42.656880 -111.182283 22 21197ft 331kts
25-Jan-19 17:10 42.738845 -111.124075 22 20396ft 332kts
25-Jan-19 17:11 42.820663 -111.065790 22 19690ft 332kts
25-Jan-19 17:12 42.902616 -111.007754 22 19027ft 332kts
25-Jan-19 17:13 42.984694 -110.949388 22 18411ft 332kts
25-Jan-19 17:14 43.066640 -110.891208 22 17854ft 331kts
25-Jan-19 17:15 43.148311 -110.832655 22 17329ft 330kts
25-Jan-19 17:16 43.229573 -110.774336 22 16847ft 329kts
25-Jan-19 17:17 43.310346 -110.715161 25 16376ft 329kts
25-Jan-19 17:18 43.378256 -110.627116 41 15864ft 338kts
25-Jan-19 17:19 43.441395 -110.531606 42 15363ft 336kts
25-Jan-19 17:20 43.504321 -110.436454 42 14862ft 335kts
25-Jan-19 17:21 43.574207 -110.365303 23 14340ft 274kts
25-Jan-19 17:21 43.627837 -110.325321 22 14000ft 260kts
25-Jan-19 17:22 43.695362 -110.302393 350 13859ft 249kts
25-Jan-19 17:23 43.771124 -110.320848 346 12710ft 301kts
25-Jan-19 17:24 43.821660 -110.377039 269 12672ft 240kts
25-Jan-19 17:26 43.814017 -110.483572 273 12404ft 237kts
25-Jan-19 17:26 43.802319 -110.556753 242 11679ft 233kts
25-Jan-19 17:27 43.764471 -110.623690 235 10374ft 214kts
25-Jan-19 17:28 43.725097 -110.683377 211 9063ft 210kts
25-Jan-19 17:29 43.671574 -110.706193 202 7876ft 178kts
25-Jan-19 17:30 43.629297 -110.727098 198 6778ft 151kts
25-Jan-19 17:31 43.599563 -110.741478 183 6460ft 20kts
25-Jan-19 17:32 43.602057 -110.738788 17 6460ft 21kts
25-Jan-19 17:33 43.603558 -110.736687 109 6460ft 0kts

Navigation Log

Ident Type
Flight plan parsing failed, navigation log unavailable